sensor_id;sensor_type;location;lat;lon;timestamp;temperature;humidity
16955;DHT22;8594;52.052;8.354;2023-05-21T00:00:41;15.20;99.90
16955;DHT22;8594;52.052;8.354;2023-05-21T00:03:07;15.20;99.90
16955;DHT22;8594;52.052;8.354;2023-05-21T00:05:38;15.20;99.90
16955;DHT22;8594;52.052;8.354;2023-05-21T00:08:05;15.10;99.90
16955;DHT22;8594;52.052;8.354;2023-05-21T00:10:33;15.10;99.90
16955;DHT22;8594;52.052;8.354;2023-05-21T00:13:00;15.10;99.90
16955;DHT22;8594;52.052;8.354;2023-05-21T00:15:27;15.20;99.90
16955;DHT22;8594;52.052;8.354;2023-05-21T00:17:54;15.20;99.90
16955;DHT22;8594;52.052;8.354;2023-05-21T00:20:21;15.10;99.90
16955;DHT22;8594;52.052;8.354;2023-05-21T00:22:48;15.20;99.90
16955;DHT22;8594;52.052;8.354;2023-05-21T00:25:14;15.30;99.90
16955;DHT22;8594;52.052;8.354;2023-05-21T00:27:42;15.40;99.90
16955;DHT22;8594;52.052;8.354;2023-05-21T00:30:09;15.40;99.90
16955;DHT22;8594;52.052;8.354;2023-05-21T00:32:36;15.40;99.90
16955;DHT22;8594;52.052;8.354;2023-05-21T00:35:04;15.40;99.90
16955;DHT22;8594;52.052;8.354;2023-05-21T00:37:31;15.30;99.90
16955;DHT22;8594;52.052;8.354;2023-05-21T00:39:58;15.40;99.90
16955;DHT22;8594;52.052;8.354;2023-05-21T00:42:25;15.40;99.90
16955;DHT22;8594;52.052;8.354;2023-05-21T00:44:56;15.30;99.90
16955;DHT22;8594;52.052;8.354;2023-05-21T00:47:23;15.20;99.90
16955;DHT22;8594;52.052;8.354;2023-05-21T00:49:53;15.10;99.90
16955;DHT22;8594;52.052;8.354;2023-05-21T00:52:20;15.20;99.90
16955;DHT22;8594;52.052;8.354;2023-05-21T00:54:48;15.20;99.90
16955;DHT22;8594;52.052;8.354;2023-05-21T00:57:17;15.20;99.90
16955;DHT22;8594;52.052;8.354;2023-05-21T00:59:46;15.10;99.90
16955;DHT22;8594;52.052;8.354;2023-05-21T01:02:14;15.00;99.90
16955;DHT22;8594;52.052;8.354;2023-05-21T01:04:42;15.10;99.90
16955;DHT22;8594;52.052;8.354;2023-05-21T01:07:09;15.10;99.90
16955;DHT22;8594;52.052;8.354;2023-05-21T01:09:37;15.10;99.90
16955;DHT22;8594;52.052;8.354;2023-05-21T01:12:05;15.10;99.90
16955;DHT22;8594;52.052;8.354;2023-05-21T01:14:33;15.00;99.90
16955;DHT22;8594;52.052;8.354;2023-05-21T01:17:02;15.00;99.90
16955;DHT22;8594;52.052;8.354;2023-05-21T01:19:32;15.00;99.90
16955;DHT22;8594;52.052;8.354;2023-05-21T01:22:02;15.00;99.90
16955;DHT22;8594;52.052;8.354;2023-05-21T01:24:32;15.00;99.90
16955;DHT22;8594;52.052;8.354;2023-05-21T01:27:01;15.10;99.90
16955;DHT22;8594;52.052;8.354;2023-05-21T01:29:30;15.20;99.90
16955;DHT22;8594;52.052;8.354;2023-05-21T01:32:01;15.00;99.90
16955;DHT22;8594;52.052;8.354;2023-05-21T01:34:41;15.00;99.90
16955;DHT22;8594;52.052;8.354;2023-05-21T01:37:16;14.90;99.90
16955;DHT22;8594;52.052;8.354;2023-05-21T01:39:52;14.90;99.90
16955;DHT22;8594;52.052;8.354;2023-05-21T01:42:23;14.90;99.90
16955;DHT22;8594;52.052;8.354;2023-05-21T01:44:52;14.70;99.90
16955;DHT22;8594;52.052;8.354;2023-05-21T01:47:22;14.70;99.90
16955;DHT22;8594;52.052;8.354;2023-05-21T01:49:52;14.60;99.90
16955;DHT22;8594;52.052;8.354;2023-05-21T01:52:19;14.60;99.90
16955;DHT22;8594;52.052;8.354;2023-05-21T01:54:46;14.70;99.90
16955;DHT22;8594;52.052;8.354;2023-05-21T01:57:15;14.70;99.90
16955;DHT22;8594;52.052;8.354;2023-05-21T01:59:42;14.70;99.90
16955;DHT22;8594;52.052;8.354;2023-05-21T02:02:10;14.70;99.90
16955;DHT22;8594;52.052;8.354;2023-05-21T02:04:36;14.60;99.90
16955;DHT22;8594;52.052;8.354;2023-05-21T02:07:05;14.70;99.90
16955;DHT22;8594;52.052;8.354;2023-05-21T02:09:32;14.70;99.90
16955;DHT22;8594;52.052;8.354;2023-05-21T02:11:59;14.70;99.90
16955;DHT22;8594;52.052;8.354;2023-05-21T02:14:27;14.60;99.90
16955;DHT22;8594;52.052;8.354;2023-05-21T02:16:54;14.60;99.90
16955;DHT22;8594;52.052;8.354;2023-05-21T02:19:22;14.70;99.90
16955;DHT22;8594;52.052;8.354;2023-05-21T02:21:49;14.70;99.90
16955;DHT22;8594;52.052;8.354;2023-05-21T02:24:15;14.70;99.90
16955;DHT22;8594;52.052;8.354;2023-05-21T02:26:42;14.60;99.90
16955;DHT22;8594;52.052;8.354;2023-05-21T02:29:09;14.70;99.90
16955;DHT22;8594;52.052;8.354;2023-05-21T02:31:37;14.70;99.90
16955;DHT22;8594;52.052;8.354;2023-05-21T02:34:04;14.70;99.90
16955;DHT22;8594;52.052;8.354;2023-05-21T02:36:32;14.70;99.90
16955;DHT22;8594;52.052;8.354;2023-05-21T02:39:00;14.60;99.90
16955;DHT22;8594;52.052;8.354;2023-05-21T02:41:27;14.60;99.90
16955;DHT22;8594;52.052;8.354;2023-05-21T02:43:54;14.40;99.90
16955;DHT22;8594;52.052;8.354;2023-05-21T02:46:20;14.50;99.90
16955;DHT22;8594;52.052;8.354;2023-05-21T02:48:48;14.60;99.90
16955;DHT22;8594;52.052;8.354;2023-05-21T02:51:15;14.60;99.90
16955;DHT22;8594;52.052;8.354;2023-05-21T02:53:42;14.60;99.90
16955;DHT22;8594;52.052;8.354;2023-05-21T02:56:09;14.50;99.90
16955;DHT22;8594;52.052;8.354;2023-05-21T02:58:36;14.40;99.90
16955;DHT22;8594;52.052;8.354;2023-05-21T03:01:03;14.50;99.90
16955;DHT22;8594;52.052;8.354;2023-05-21T03:03:32;14.50;99.90
16955;DHT22;8594;52.052;8.354;2023-05-21T03:06:00;14.40;99.90
16955;DHT22;8594;52.052;8.354;2023-05-21T03:08:27;14.50;99.90
16955;DHT22;8594;52.052;8.354;2023-05-21T03:10:54;14.60;99.90
16955;DHT22;8594;52.052;8.354;2023-05-21T03:13:21;14.60;99.90
16955;DHT22;8594;52.052;8.354;2023-05-21T03:15:47;14.60;99.90
16955;DHT22;8594;52.052;8.354;2023-05-21T03:18:14;14.40;99.90
16955;DHT22;8594;52.052;8.354;2023-05-21T03:20:41;14.40;99.90
16955;DHT22;8594;52.052;8.354;2023-05-21T03:23:11;14.50;99.90
16955;DHT22;8594;52.052;8.354;2023-05-21T03:25:38;14.50;99.90
16955;DHT22;8594;52.052;8.354;2023-05-21T03:28:05;14.50;99.90
16955;DHT22;8594;52.052;8.354;2023-05-21T03:30:34;14.60;99.90
16955;DHT22;8594;52.052;8.354;2023-05-21T03:33:02;14.50;99.90
16955;DHT22;8594;52.052;8.354;2023-05-21T03:35:29;14.50;99.90
16955;DHT22;8594;52.052;8.354;2023-05-21T03:37:56;14.50;99.90
16955;DHT22;8594;52.052;8.354;2023-05-21T03:40:24;14.50;99.90
16955;DHT22;8594;52.052;8.354;2023-05-21T03:42:51;14.50;99.90
16955;DHT22;8594;52.052;8.354;2023-05-21T03:45:17;14.50;99.90
16955;DHT22;8594;52.052;8.354;2023-05-21T03:47:44;14.40;99.90
16955;DHT22;8594;52.052;8.354;2023-05-21T03:50:11;14.50;99.90
16955;DHT22;8594;52.052;8.354;2023-05-21T03:52:37;14.60;99.90
16955;DHT22;8594;52.052;8.354;2023-05-21T03:55:05;14.60;99.90
16955;DHT22;8594;52.052;8.354;2023-05-21T03:57:33;14.70;99.90
16955;DHT22;8594;52.052;8.354;2023-05-21T04:00:01;14.70;99.90
16955;DHT22;8594;52.052;8.354;2023-05-21T04:02:28;14.60;99.90
16955;DHT22;8594;52.052;8.354;2023-05-21T04:04:55;14.70;99.90
16955;DHT22;8594;52.052;8.354;2023-05-21T04:07:22;14.70;99.90
16955;DHT22;8594;52.052;8.354;2023-05-21T04:09:48;14.60;99.90
16955;DHT22;8594;52.052;8.354;2023-05-21T04:12:15;14.60;99.90
16955;DHT22;8594;52.052;8.354;2023-05-21T04:14:45;14.60;99.90
16955;DHT22;8594;52.052;8.354;2023-05-21T04:17:12;14.60;99.90
16955;DHT22;8594;52.052;8.354;2023-05-21T04:19:39;14.60;99.90
16955;DHT22;8594;52.052;8.354;2023-05-21T04:22:08;14.70;99.90
16955;DHT22;8594;52.052;8.354;2023-05-21T04:24:36;14.70;99.90
16955;DHT22;8594;52.052;8.354;2023-05-21T04:27:04;14.50;99.90
16955;DHT22;8594;52.052;8.354;2023-05-21T04:29:31;14.60;99.90
16955;DHT22;8594;52.052;8.354;2023-05-21T04:31:59;14.70;99.90
16955;DHT22;8594;52.052;8.354;2023-05-21T04:34:26;14.70;99.90
16955;DHT22;8594;52.052;8.354;2023-05-21T04:36:54;14.70;99.90
16955;DHT22;8594;52.052;8.354;2023-05-21T04:39:21;14.80;99.90
16955;DHT22;8594;52.052;8.354;2023-05-21T04:41:47;14.90;99.90
16955;DHT22;8594;52.052;8.354;2023-05-21T04:44:15;14.80;99.90
16955;DHT22;8594;52.052;8.354;2023-05-21T04:46:42;14.80;99.90
16955;DHT22;8594;52.052;8.354;2023-05-21T04:49:11;14.70;99.90
16955;DHT22;8594;52.052;8.354;2023-05-21T04:51:38;14.70;99.90
16955;DHT22;8594;52.052;8.354;2023-05-21T04:54:06;14.80;99.90
16955;DHT22;8594;52.052;8.354;2023-05-21T04:56:32;14.80;99.90
16955;DHT22;8594;52.052;8.354;2023-05-21T04:58:59;14.70;99.90
16955;DHT22;8594;52.052;8.354;2023-05-21T05:01:26;14.70;99.90
16955;DHT22;8594;52.052;8.354;2023-05-21T05:03:53;14.70;99.90
16955;DHT22;8594;52.052;8.354;2023-05-21T05:06:22;14.60;99.90
16955;DHT22;8594;52.052;8.354;2023-05-21T05:08:50;14.60;99.90
16955;DHT22;8594;52.052;8.354;2023-05-21T05:11:17;14.60;99.90
16955;DHT22;8594;52.052;8.354;2023-05-21T05:13:43;14.60;99.90
16955;DHT22;8594;52.052;8.354;2023-05-21T05:16:10;14.70;99.90
16955;DHT22;8594;52.052;8.354;2023-05-21T05:18:38;14.70;99.90
16955;DHT22;8594;52.052;8.354;2023-05-21T05:21:05;14.70;99.90
16955;DHT22;8594;52.052;8.354;2023-05-21T05:23:33;14.70;99.90
16955;DHT22;8594;52.052;8.354;2023-05-21T05:26:00;14.70;99.90
16955;DHT22;8594;52.052;8.354;2023-05-21T05:28:27;14.70;99.90
16955;DHT22;8594;52.052;8.354;2023-05-21T05:30:54;14.60;99.90
16955;DHT22;8594;52.052;8.354;2023-05-21T05:33:21;14.80;99.90
16955;DHT22;8594;52.052;8.354;2023-05-21T05:35:47;14.90;99.90
16955;DHT22;8594;52.052;8.354;2023-05-21T05:38:14;14.90;99.90
16955;DHT22;8594;52.052;8.354;2023-05-21T05:40:42;14.70;99.90
16955;DHT22;8594;52.052;8.354;2023-05-21T05:43:09;14.70;99.90
16955;DHT22;8594;52.052;8.354;2023-05-21T05:45:36;14.70;99.90
16955;DHT22;8594;52.052;8.354;2023-05-21T05:48:03;14.60;99.90
16955;DHT22;8594;52.052;8.354;2023-05-21T05:50:30;14.60;99.90
16955;DHT22;8594;52.052;8.354;2023-05-21T05:52:57;14.70;99.90
16955;DHT22;8594;52.052;8.354;2023-05-21T05:55:24;14.60;99.90
16955;DHT22;8594;52.052;8.354;2023-05-21T05:57:52;14.70;99.90
16955;DHT22;8594;52.052;8.354;2023-05-21T06:00:19;14.70;99.90
16955;DHT22;8594;52.052;8.354;2023-05-21T06:02:46;14.80;99.90
16955;DHT22;8594;52.052;8.354;2023-05-21T06:05:13;14.80;99.90
16955;DHT22;8594;52.052;8.354;2023-05-21T06:07:41;15.00;99.90
16955;DHT22;8594;52.052;8.354;2023-05-21T06:10:08;15.00;99.90
16955;DHT22;8594;52.052;8.354;2023-05-21T06:12:35;14.90;99.90
16955;DHT22;8594;52.052;8.354;2023-05-21T06:15:04;14.90;99.90
16955;DHT22;8594;52.052;8.354;2023-05-21T06:17:32;14.90;99.90
16955;DHT22;8594;52.052;8.354;2023-05-21T06:19:59;14.90;99.90
16955;DHT22;8594;52.052;8.354;2023-05-21T06:22:25;14.90;99.90
16955;DHT22;8594;52.052;8.354;2023-05-21T06:24:52;14.90;99.90
16955;DHT22;8594;52.052;8.354;2023-05-21T06:27:19;14.90;99.90
16955;DHT22;8594;52.052;8.354;2023-05-21T06:29:46;14.80;99.90
16955;DHT22;8594;52.052;8.354;2023-05-21T06:32:14;14.90;99.90
16955;DHT22;8594;52.052;8.354;2023-05-21T06:34:40;14.90;99.90
16955;DHT22;8594;52.052;8.354;2023-05-21T06:37:07;15.00;99.90
16955;DHT22;8594;52.052;8.354;2023-05-21T06:39:34;15.10;99.90
16955;DHT22;8594;52.052;8.354;2023-05-21T06:42:01;15.10;99.90
16955;DHT22;8594;52.052;8.354;2023-05-21T06:44:27;15.10;99.90
16955;DHT22;8594;52.052;8.354;2023-05-21T06:46:54;15.10;99.90
16955;DHT22;8594;52.052;8.354;2023-05-21T06:49:22;15.00;99.90
16955;DHT22;8594;52.052;8.354;2023-05-21T06:51:49;15.00;99.90
16955;DHT22;8594;52.052;8.354;2023-05-21T06:54:16;15.00;99.90
16955;DHT22;8594;52.052;8.354;2023-05-21T06:56:43;15.00;99.90
16955;DHT22;8594;52.052;8.354;2023-05-21T06:59:09;15.00;99.90
16955;DHT22;8594;52.052;8.354;2023-05-21T07:01:36;15.10;99.90
16955;DHT22;8594;52.052;8.354;2023-05-21T07:04:06;15.30;99.90
16955;DHT22;8594;52.052;8.354;2023-05-21T07:06:35;15.30;99.90
16955;DHT22;8594;52.052;8.354;2023-05-21T07:09:02;15.30;99.90
16955;DHT22;8594;52.052;8.354;2023-05-21T07:11:30;15.30;99.90
16955;DHT22;8594;52.052;8.354;2023-05-21T07:13:58;15.40;99.90
16955;DHT22;8594;52.052;8.354;2023-05-21T07:16:26;15.50;99.90
16955;DHT22;8594;52.052;8.354;2023-05-21T07:18:52;15.60;99.90
16955;DHT22;8594;52.052;8.354;2023-05-21T07:21:20;15.70;99.90
16955;DHT22;8594;52.052;8.354;2023-05-21T07:23:48;15.80;99.90
16955;DHT22;8594;52.052;8.354;2023-05-21T07:26:15;15.90;99.90
16955;DHT22;8594;52.052;8.354;2023-05-21T07:28:42;15.90;99.90
16955;DHT22;8594;52.052;8.354;2023-05-21T07:31:09;15.90;99.90
16955;DHT22;8594;52.052;8.354;2023-05-21T07:33:37;15.90;99.90
16955;DHT22;8594;52.052;8.354;2023-05-21T07:36:05;16.10;99.90
16955;DHT22;8594;52.052;8.354;2023-05-21T07:38:33;16.20;99.90
16955;DHT22;8594;52.052;8.354;2023-05-21T07:41:01;16.40;99.90
16955;DHT22;8594;52.052;8.354;2023-05-21T07:43:28;16.70;99.90
16955;DHT22;8594;52.052;8.354;2023-05-21T07:45:56;17.00;99.90
16955;DHT22;8594;52.052;8.354;2023-05-21T07:48:23;17.30;99.90
16955;DHT22;8594;52.052;8.354;2023-05-21T07:50:51;17.50;99.90
16955;DHT22;8594;52.052;8.354;2023-05-21T07:53:18;17.60;99.90
16955;DHT22;8594;52.052;8.354;2023-05-21T07:55:46;17.70;99.90
16955;DHT22;8594;52.052;8.354;2023-05-21T07:58:15;18.00;99.90
16955;DHT22;8594;52.052;8.354;2023-05-21T08:00:44;17.90;99.90
16955;DHT22;8594;52.052;8.354;2023-05-21T08:03:13;17.90;99.90
16955;DHT22;8594;52.052;8.354;2023-05-21T08:05:41;18.00;99.90
16955;DHT22;8594;52.052;8.354;2023-05-21T08:08:09;18.00;99.90
16955;DHT22;8594;52.052;8.354;2023-05-21T08:10:37;18.20;99.90
16955;DHT22;8594;52.052;8.354;2023-05-21T08:13:06;18.30;99.90
16955;DHT22;8594;52.052;8.354;2023-05-21T08:15:34;18.50;99.90
16955;DHT22;8594;52.052;8.354;2023-05-21T08:18:01;18.50;99.90
16955;DHT22;8594;52.052;8.354;2023-05-21T08:20:28;18.50;99.90
16955;DHT22;8594;52.052;8.354;2023-05-21T08:22:57;18.50;99.90
16955;DHT22;8594;52.052;8.354;2023-05-21T08:25:24;18.80;99.90
16955;DHT22;8594;52.052;8.354;2023-05-21T08:27:51;18.70;99.90
16955;DHT22;8594;52.052;8.354;2023-05-21T08:30:18;18.70;99.90
16955;DHT22;8594;52.052;8.354;2023-05-21T08:32:47;19.00;99.90
16955;DHT22;8594;52.052;8.354;2023-05-21T08:35:14;19.30;99.90
16955;DHT22;8594;52.052;8.354;2023-05-21T08:37:41;19.20;99.90
16955;DHT22;8594;52.052;8.354;2023-05-21T08:40:09;19.20;99.90
16955;DHT22;8594;52.052;8.354;2023-05-21T08:42:41;19.30;99.90
16955;DHT22;8594;52.052;8.354;2023-05-21T08:45:11;19.40;99.90
16955;DHT22;8594;52.052;8.354;2023-05-21T08:47:41;19.50;99.90
16955;DHT22;8594;52.052;8.354;2023-05-21T08:50:11;19.50;99.90
16955;DHT22;8594;52.052;8.354;2023-05-21T08:52:40;19.60;99.90
16955;DHT22;8594;52.052;8.354;2023-05-21T08:55:07;19.50;99.90
16955;DHT22;8594;52.052;8.354;2023-05-21T08:57:35;19.50;99.90
16955;DHT22;8594;52.052;8.354;2023-05-21T09:00:06;19.50;99.90
16955;DHT22;8594;52.052;8.354;2023-05-21T09:02:34;19.60;99.90
16955;DHT22;8594;52.052;8.354;2023-05-21T09:05:05;19.80;99.90
16955;DHT22;8594;52.052;8.354;2023-05-21T09:07:41;19.70;99.90
16955;DHT22;8594;52.052;8.354;2023-05-21T09:10:13;19.60;99.90
16955;DHT22;8594;52.052;8.354;2023-05-21T09:12:40;19.70;99.90
16955;DHT22;8594;52.052;8.354;2023-05-21T09:15:08;19.90;99.90
16955;DHT22;8594;52.052;8.354;2023-05-21T09:17:35;19.80;99.90
16955;DHT22;8594;52.052;8.354;2023-05-21T09:20:10;19.80;99.90
16955;DHT22;8594;52.052;8.354;2023-05-21T09:22:41;19.90;99.90
16955;DHT22;8594;52.052;8.354;2023-05-21T09:25:09;19.90;99.90
16955;DHT22;8594;52.052;8.354;2023-05-21T09:27:37;20.20;99.90
16955;DHT22;8594;52.052;8.354;2023-05-21T09:30:08;20.20;99.90
16955;DHT22;8594;52.052;8.354;2023-05-21T09:32:36;20.00;99.90
16955;DHT22;8594;52.052;8.354;2023-05-21T09:35:08;20.20;99.90
16955;DHT22;8594;52.052;8.354;2023-05-21T09:37:36;20.30;99.90
16955;DHT22;8594;52.052;8.354;2023-05-21T09:40:13;20.60;99.90
16955;DHT22;8594;52.052;8.354;2023-05-21T09:42:43;21.00;99.90
16955;DHT22;8594;52.052;8.354;2023-05-21T09:45:11;21.10;99.90
16955;DHT22;8594;52.052;8.354;2023-05-21T09:47:44;21.00;99.90
16955;DHT22;8594;52.052;8.354;2023-05-21T09:50:11;20.90;99.90
16955;DHT22;8594;52.052;8.354;2023-05-21T09:52:39;20.80;99.90
16955;DHT22;8594;52.052;8.354;2023-05-21T09:55:29;21.00;99.90
16955;DHT22;8594;52.052;8.354;2023-05-21T09:58:02;21.20;99.90
16955;DHT22;8594;52.052;8.354;2023-05-21T10:00:30;21.10;99.90
16955;DHT22;8594;52.052;8.354;2023-05-21T10:03:00;21.00;99.90
16955;DHT22;8594;52.052;8.354;2023-05-21T10:05:29;21.00;99.90
16955;DHT22;8594;52.052;8.354;2023-05-21T10:07:59;21.00;99.90
16955;DHT22;8594;52.052;8.354;2023-05-21T10:10:29;21.20;99.90
16955;DHT22;8594;52.052;8.354;2023-05-21T10:12:59;21.10;99.90
16955;DHT22;8594;52.052;8.354;2023-05-21T10:15:34;21.20;99.90
16955;DHT22;8594;52.052;8.354;2023-05-21T10:18:05;21.20;99.90
16955;DHT22;8594;52.052;8.354;2023-05-21T10:20:35;21.20;99.90
16955;DHT22;8594;52.052;8.354;2023-05-21T10:23:03;21.60;99.90
16955;DHT22;8594;52.052;8.354;2023-05-21T10:25:32;21.80;99.90
16955;DHT22;8594;52.052;8.354;2023-05-21T10:28:00;21.80;99.90
16955;DHT22;8594;52.052;8.354;2023-05-21T10:30:29;21.90;99.90
16955;DHT22;8594;52.052;8.354;2023-05-21T10:32:57;22.30;99.90
16955;DHT22;8594;52.052;8.354;2023-05-21T10:35:27;22.50;99.90
16955;DHT22;8594;52.052;8.354;2023-05-21T10:37:56;22.30;99.90
16955;DHT22;8594;52.052;8.354;2023-05-21T10:40:25;22.20;99.90
16955;DHT22;8594;52.052;8.354;2023-05-21T10:43:18;22.20;99.90
16955;DHT22;8594;52.052;8.354;2023-05-21T10:46:19;22.30;99.90
16955;DHT22;8594;52.052;8.354;2023-05-21T10:49:15;22.50;99.90
16955;DHT22;8594;52.052;8.354;2023-05-21T10:51:57;22.30;99.90
16955;DHT22;8594;52.052;8.354;2023-05-21T10:54:53;22.10;99.90
16955;DHT22;8594;52.052;8.354;2023-05-21T11:00:37;22.30;99.90
16955;DHT22;8594;52.052;8.354;2023-05-21T11:03:05;22.60;99.90
16955;DHT22;8594;52.052;8.354;2023-05-21T11:05:51;22.80;99.90
16955;DHT22;8594;52.052;8.354;2023-05-21T11:08:21;22.70;99.90
16955;DHT22;8594;52.052;8.354;2023-05-21T11:10:53;22.80;99.90
16955;DHT22;8594;52.052;8.354;2023-05-21T11:13:24;23.20;99.90
16955;DHT22;8594;52.052;8.354;2023-05-21T11:16:12;23.30;99.90
16955;DHT22;8594;52.052;8.354;2023-05-21T11:18:59;23.20;99.90
16955;DHT22;8594;52.052;8.354;2023-05-21T11:21:31;23.30;99.90
16955;DHT22;8594;52.052;8.354;2023-05-21T11:24:02;23.40;99.90
16955;DHT22;8594;52.052;8.354;2023-05-21T11:26:58;23.70;99.90
16955;DHT22;8594;52.052;8.354;2023-05-21T11:29:38;23.80;99.90
16955;DHT22;8594;52.052;8.354;2023-05-21T11:32:07;23.80;99.90
16955;DHT22;8594;52.052;8.354;2023-05-21T11:34:42;23.70;99.90
16955;DHT22;8594;52.052;8.354;2023-05-21T11:37:30;23.50;99.90
16955;DHT22;8594;52.052;8.354;2023-05-21T11:40:18;23.30;99.90
16955;DHT22;8594;52.052;8.354;2023-05-21T11:42:49;23.00;99.90
16955;DHT22;8594;52.052;8.354;2023-05-21T11:45:20;22.80;99.90
16955;DHT22;8594;52.052;8.354;2023-05-21T11:47:48;22.90;99.90
16955;DHT22;8594;52.052;8.354;2023-05-21T11:50:16;23.00;99.90
16955;DHT22;8594;52.052;8.354;2023-05-21T11:52:44;23.00;99.90
16955;DHT22;8594;52.052;8.354;2023-05-21T11:55:11;23.10;99.90
16955;DHT22;8594;52.052;8.354;2023-05-21T11:57:40;23.20;99.90
16955;DHT22;8594;52.052;8.354;2023-05-21T12:00:13;23.10;99.90
16955;DHT22;8594;52.052;8.354;2023-05-21T12:02:48;23.10;99.90
16955;DHT22;8594;52.052;8.354;2023-05-21T12:05:16;23.10;99.90
16955;DHT22;8594;52.052;8.354;2023-05-21T12:07:46;23.10;99.90
16955;DHT22;8594;52.052;8.354;2023-05-21T12:10:14;23.40;99.90
16955;DHT22;8594;52.052;8.354;2023-05-21T12:12:42;23.40;99.90
16955;DHT22;8594;52.052;8.354;2023-05-21T12:15:10;23.40;99.90
16955;DHT22;8594;52.052;8.354;2023-05-21T12:17:37;23.60;99.90
16955;DHT22;8594;52.052;8.354;2023-05-21T12:20:07;23.60;99.90
16955;DHT22;8594;52.052;8.354;2023-05-21T12:22:39;23.70;99.90
16955;DHT22;8594;52.052;8.354;2023-05-21T12:25:08;24.00;99.90
16955;DHT22;8594;52.052;8.354;2023-05-21T12:27:36;24.00;99.90
16955;DHT22;8594;52.052;8.354;2023-05-21T12:30:05;24.10;99.90
16955;DHT22;8594;52.052;8.354;2023-05-21T12:32:33;24.00;99.90
16955;DHT22;8594;52.052;8.354;2023-05-21T12:34:59;23.40;99.90
16955;DHT22;8594;52.052;8.354;2023-05-21T12:37:29;23.50;99.90
16955;DHT22;8594;52.052;8.354;2023-05-21T12:39:58;23.40;99.90
16955;DHT22;8594;52.052;8.354;2023-05-21T12:42:26;23.30;99.90
16955;DHT22;8594;52.052;8.354;2023-05-21T12:44:55;23.40;99.90
16955;DHT22;8594;52.052;8.354;2023-05-21T12:47:23;23.30;99.90
16955;DHT22;8594;52.052;8.354;2023-05-21T12:49:53;23.50;99.90
16955;DHT22;8594;52.052;8.354;2023-05-21T12:52:23;23.40;99.90
16955;DHT22;8594;52.052;8.354;2023-05-21T12:54:54;23.70;99.90
16955;DHT22;8594;52.052;8.354;2023-05-21T12:57:23;23.80;99.90
16955;DHT22;8594;52.052;8.354;2023-05-21T12:59:51;23.60;99.90
16955;DHT22;8594;52.052;8.354;2023-05-21T13:02:22;23.90;99.90
16955;DHT22;8594;52.052;8.354;2023-05-21T13:04:54;24.00;99.90
16955;DHT22;8594;52.052;8.354;2023-05-21T13:07:22;23.70;99.90
16955;DHT22;8594;52.052;8.354;2023-05-21T13:09:49;23.70;99.90
16955;DHT22;8594;52.052;8.354;2023-05-21T13:12:19;24.10;99.90
16955;DHT22;8594;52.052;8.354;2023-05-21T13:14:48;24.30;99.90
16955;DHT22;8594;52.052;8.354;2023-05-21T13:17:15;24.50;99.90
16955;DHT22;8594;52.052;8.354;2023-05-21T13:19:45;24.80;99.90
16955;DHT22;8594;52.052;8.354;2023-05-21T13:22:30;24.60;99.90
16955;DHT22;8594;52.052;8.354;2023-05-21T13:24:57;24.50;99.90
16955;DHT22;8594;52.052;8.354;2023-05-21T13:27:25;24.50;99.90
16955;DHT22;8594;52.052;8.354;2023-05-21T13:29:52;24.80;99.90
16955;DHT22;8594;52.052;8.354;2023-05-21T13:32:19;24.90;99.90
16955;DHT22;8594;52.052;8.354;2023-05-21T13:34:46;24.80;99.90
16955;DHT22;8594;52.052;8.354;2023-05-21T13:37:13;24.70;99.90
16955;DHT22;8594;52.052;8.354;2023-05-21T13:39:40;24.50;99.90
16955;DHT22;8594;52.052;8.354;2023-05-21T13:42:07;24.30;99.90
16955;DHT22;8594;52.052;8.354;2023-05-21T13:44:35;24.50;99.90
16955;DHT22;8594;52.052;8.354;2023-05-21T13:47:03;24.50;99.90
16955;DHT22;8594;52.052;8.354;2023-05-21T13:49:32;24.60;99.90
16955;DHT22;8594;52.052;8.354;2023-05-21T13:51:59;24.60;99.90
16955;DHT22;8594;52.052;8.354;2023-05-21T13:54:26;24.50;99.90
16955;DHT22;8594;52.052;8.354;2023-05-21T13:56:53;24.50;99.90
16955;DHT22;8594;52.052;8.354;2023-05-21T13:59:20;24.70;99.90
16955;DHT22;8594;52.052;8.354;2023-05-21T14:01:49;24.70;99.90
16955;DHT22;8594;52.052;8.354;2023-05-21T14:04:17;24.60;99.90
16955;DHT22;8594;52.052;8.354;2023-05-21T14:06:44;24.50;99.90
16955;DHT22;8594;52.052;8.354;2023-05-21T14:09:12;24.60;99.90
16955;DHT22;8594;52.052;8.354;2023-05-21T14:11:39;24.60;99.90
16955;DHT22;8594;52.052;8.354;2023-05-21T14:14:06;24.70;99.90
16955;DHT22;8594;52.052;8.354;2023-05-21T14:16:33;24.70;99.90
16955;DHT22;8594;52.052;8.354;2023-05-21T14:19:01;24.70;99.90
16955;DHT22;8594;52.052;8.354;2023-05-21T14:21:28;24.80;99.90
16955;DHT22;8594;52.052;8.354;2023-05-21T14:23:55;24.90;99.90
16955;DHT22;8594;52.052;8.354;2023-05-21T14:26:22;24.90;99.90
16955;DHT22;8594;52.052;8.354;2023-05-21T14:28:49;24.80;99.90
16955;DHT22;8594;52.052;8.354;2023-05-21T14:31:16;24.80;99.90
16955;DHT22;8594;52.052;8.354;2023-05-21T14:33:43;25.00;99.90
16955;DHT22;8594;52.052;8.354;2023-05-21T14:36:11;25.30;99.90
16955;DHT22;8594;52.052;8.354;2023-05-21T14:38:38;25.30;99.90
16955;DHT22;8594;52.052;8.354;2023-05-21T14:41:05;25.10;99.90
16955;DHT22;8594;52.052;8.354;2023-05-21T14:43:33;25.20;99.90
16955;DHT22;8594;52.052;8.354;2023-05-21T14:45:59;25.50;99.90
16955;DHT22;8594;52.052;8.354;2023-05-21T14:48:26;25.70;99.90
16955;DHT22;8594;52.052;8.354;2023-05-21T14:50:54;25.70;99.90
16955;DHT22;8594;52.052;8.354;2023-05-21T14:53:22;25.80;99.90
16955;DHT22;8594;52.052;8.354;2023-05-21T14:55:48;26.00;99.90
16955;DHT22;8594;52.052;8.354;2023-05-21T14:58:15;26.20;99.90
16955;DHT22;8594;52.052;8.354;2023-05-21T15:00:42;26.20;99.90
16955;DHT22;8594;52.052;8.354;2023-05-21T15:03:09;26.00;99.90
16955;DHT22;8594;52.052;8.354;2023-05-21T15:05:37;26.10;99.90
16955;DHT22;8594;52.052;8.354;2023-05-21T15:08:04;26.10;99.90
16955;DHT22;8594;52.052;8.354;2023-05-21T15:10:33;25.70;99.90
16955;DHT22;8594;52.052;8.354;2023-05-21T15:13:00;25.50;99.90
16955;DHT22;8594;52.052;8.354;2023-05-21T15:15:27;25.40;99.90
16955;DHT22;8594;52.052;8.354;2023-05-21T15:17:54;25.60;99.90
16955;DHT22;8594;52.052;8.354;2023-05-21T15:20:22;25.50;99.90
16955;DHT22;8594;52.052;8.354;2023-05-21T15:22:49;25.40;99.90
16955;DHT22;8594;52.052;8.354;2023-05-21T15:25:15;25.40;99.90
16955;DHT22;8594;52.052;8.354;2023-05-21T15:27:45;25.40;99.90
16955;DHT22;8594;52.052;8.354;2023-05-21T15:30:11;25.40;99.90
16955;DHT22;8594;52.052;8.354;2023-05-21T15:32:38;25.30;99.90
16955;DHT22;8594;52.052;8.354;2023-05-21T15:35:06;25.30;99.90
16955;DHT22;8594;52.052;8.354;2023-05-21T15:37:33;25.30;99.90
16955;DHT22;8594;52.052;8.354;2023-05-21T15:40:00;25.30;99.90
16955;DHT22;8594;52.052;8.354;2023-05-21T15:42:26;25.30;99.90
16955;DHT22;8594;52.052;8.354;2023-05-21T15:44:57;25.30;99.90
16955;DHT22;8594;52.052;8.354;2023-05-21T15:47:24;25.30;99.90
16955;DHT22;8594;52.052;8.354;2023-05-21T15:49:51;25.30;99.90
16955;DHT22;8594;52.052;8.354;2023-05-21T15:52:18;25.40;99.90
16955;DHT22;8594;52.052;8.354;2023-05-21T15:54:45;25.40;99.90
16955;DHT22;8594;52.052;8.354;2023-05-21T15:57:12;25.40;99.90